sensor_id;sensor_type;location;lat;lon;timestamp;P1;durP1;ratioP1;P2;durP2;ratioP2
76896;SDS011;65856;52.178;21.176;2024-03-23T00:52:27;18.00;;;10.70;;
76896;SDS011;65856;52.178;21.176;2024-03-23T00:54:52;19.50;;;10.50;;
76896;SDS011;65856;52.178;21.176;2024-03-23T00:57:18;23.20;;;11.30;;
76896;SDS011;65856;52.178;21.176;2024-03-23T00:59:43;20.90;;;11.10;;
76896;SDS011;65856;52.178;21.176;2024-03-23T01:02:08;18.10;;;10.40;;
76896;SDS011;65856;52.178;21.176;2024-03-23T01:04:34;21.90;;;11.70;;
76896;SDS011;65856;52.178;21.176;2024-03-23T01:06:59;22.40;;;11.70;;
76896;SDS011;65856;52.178;21.176;2024-03-23T01:09:25;20.30;;;12.10;;
76896;SDS011;65856;52.178;21.176;2024-03-23T01:11:50;19.50;;;11.10;;
76896;SDS011;65856;52.178;21.176;2024-03-23T01:14:16;22.80;;;12.00;;
76896;SDS011;65856;52.178;21.176;2024-03-23T01:16:41;22.20;;;12.00;;
76896;SDS011;65856;52.178;21.176;2024-03-23T01:19:06;21.40;;;11.70;;
76896;SDS011;65856;52.178;21.176;2024-03-23T01:21:32;19.60;;;11.70;;
76896;SDS011;65856;52.178;21.176;2024-03-23T01:23:58;23.70;;;12.40;;
76896;SDS011;65856;52.178;21.176;2024-03-23T01:26:23;20.40;;;11.50;;
76896;SDS011;65856;52.178;21.176;2024-03-23T01:28:49;22.40;;;11.80;;
76896;SDS011;65856;52.178;21.176;2024-03-23T01:31:14;23.90;;;13.10;;
76896;SDS011;65856;52.178;21.176;2024-03-23T01:33:41;21.80;;;12.20;;
76896;SDS011;65856;52.178;21.176;2024-03-23T01:36:06;20.20;;;11.70;;
76896;SDS011;65856;52.178;21.176;2024-03-23T01:38:33;22.00;;;12.00;;
76896;SDS011;65856;52.178;21.176;2024-03-23T01:40:59;23.70;;;12.90;;
76896;SDS011;65856;52.178;21.176;2024-03-23T01:43:24;24.50;;;12.40;;
76896;SDS011;65856;52.178;21.176;2024-03-23T01:45:51;22.50;;;12.50;;
76896;SDS011;65856;52.178;21.176;2024-03-23T01:48:19;24.40;;;13.10;;
76896;SDS011;65856;52.178;21.176;2024-03-23T01:50:47;25.10;;;13.20;;
76896;SDS011;65856;52.178;21.176;2024-03-23T01:53:14;24.80;;;12.90;;
76896;SDS011;65856;52.178;21.176;2024-03-23T01:55:42;23.30;;;13.20;;
76896;SDS011;65856;52.178;21.176;2024-03-23T01:58:08;23.00;;;12.90;;
76896;SDS011;65856;52.178;21.176;2024-03-23T02:00:34;26.60;;;13.40;;
76896;SDS011;65856;52.178;21.176;2024-03-23T02:02:59;23.10;;;13.10;;
76896;SDS011;65856;52.178;21.176;2024-03-23T02:05:25;25.50;;;12.90;;
76896;SDS011;65856;52.178;21.176;2024-03-23T02:07:50;22.20;;;12.60;;
76896;SDS011;65856;52.178;21.176;2024-03-23T02:10:16;23.80;;;12.90;;
76896;SDS011;65856;52.178;21.176;2024-03-23T02:12:41;23.70;;;12.40;;
76896;SDS011;65856;52.178;21.176;2024-03-23T02:15:07;23.90;;;13.30;;
76896;SDS011;65856;52.178;21.176;2024-03-23T02:17:36;22.40;;;12.60;;
76896;SDS011;65856;52.178;21.176;2024-03-23T02:20:02;24.60;;;13.10;;
76896;SDS011;65856;52.178;21.176;2024-03-23T02:22:38;23.50;;;13.00;;
76896;SDS011;65856;52.178;21.176;2024-03-23T02:25:06;24.70;;;13.10;;
76896;SDS011;65856;52.178;21.176;2024-03-23T02:27:32;22.70;;;13.20;;
76896;SDS011;65856;52.178;21.176;2024-03-23T02:29:59;23.80;;;13.20;;
76896;SDS011;65856;52.178;21.176;2024-03-23T02:32:25;22.40;;;12.80;;
76896;SDS011;65856;52.178;21.176;2024-03-23T02:34:51;25.90;;;13.80;;
76896;SDS011;65856;52.178;21.176;2024-03-23T02:37:16;25.20;;;13.00;;
76896;SDS011;65856;52.178;21.176;2024-03-23T02:39:42;23.90;;;13.20;;
76896;SDS011;65856;52.178;21.176;2024-03-23T02:42:07;22.10;;;13.30;;
76896;SDS011;65856;52.178;21.176;2024-03-23T02:44:33;24.40;;;13.30;;
76896;SDS011;65856;52.178;21.176;2024-03-23T02:46:58;25.10;;;13.80;;
76896;SDS011;65856;52.178;21.176;2024-03-23T02:49:23;25.00;;;12.70;;
76896;SDS011;65856;52.178;21.176;2024-03-23T02:51:50;24.60;;;12.90;;
76896;SDS011;65856;52.178;21.176;2024-03-23T02:54:15;25.70;;;13.90;;
76896;SDS011;65856;52.178;21.176;2024-03-23T02:56:41;23.60;;;13.50;;
76896;SDS011;65856;52.178;21.176;2024-03-23T02:59:06;23.40;;;12.60;;
76896;SDS011;65856;52.178;21.176;2024-03-23T03:01:32;22.50;;;12.60;;
76896;SDS011;65856;52.178;21.176;2024-03-23T03:03:57;22.50;;;12.90;;
76896;SDS011;65856;52.178;21.176;2024-03-23T03:06:25;23.80;;;13.20;;
76896;SDS011;65856;52.178;21.176;2024-03-23T03:08:51;25.20;;;13.70;;
76896;SDS011;65856;52.178;21.176;2024-03-23T03:11:17;25.80;;;13.10;;
76896;SDS011;65856;52.178;21.176;2024-03-23T03:13:44;24.40;;;12.60;;
76896;SDS011;65856;52.178;21.176;2024-03-23T03:16:10;25.20;;;13.80;;
76896;SDS011;65856;52.178;21.176;2024-03-23T03:18:36;26.40;;;14.20;;
76896;SDS011;65856;52.178;21.176;2024-03-23T03:21:02;24.90;;;13.30;;
76896;SDS011;65856;52.178;21.176;2024-03-23T03:23:28;26.20;;;14.10;;
76896;SDS011;65856;52.178;21.176;2024-03-23T03:25:54;25.80;;;14.10;;
76896;SDS011;65856;52.178;21.176;2024-03-23T03:28:20;23.80;;;13.50;;
76896;SDS011;65856;52.178;21.176;2024-03-23T03:30:46;24.80;;;13.70;;
76896;SDS011;65856;52.178;21.176;2024-03-23T03:33:12;24.70;;;13.70;;
76896;SDS011;65856;52.178;21.176;2024-03-23T03:35:37;28.10;;;14.30;;
76896;SDS011;65856;52.178;21.176;2024-03-23T03:38:04;27.00;;;14.50;;
76896;SDS011;65856;52.178;21.176;2024-03-23T03:40:30;23.10;;;13.50;;
76896;SDS011;65856;52.178;21.176;2024-03-23T03:42:55;24.90;;;14.10;;
76896;SDS011;65856;52.178;21.176;2024-03-23T03:45:21;24.80;;;14.10;;
76896;SDS011;65856;52.178;21.176;2024-03-23T03:47:46;26.00;;;14.10;;
76896;SDS011;65856;52.178;21.176;2024-03-23T03:50:12;22.90;;;13.50;;
76896;SDS011;65856;52.178;21.176;2024-03-23T03:52:37;25.50;;;13.50;;
76896;SDS011;65856;52.178;21.176;2024-03-23T03:55:03;25.10;;;13.50;;
76896;SDS011;65856;52.178;21.176;2024-03-23T03:57:29;24.80;;;13.20;;
76896;SDS011;65856;52.178;21.176;2024-03-23T03:59:54;22.30;;;13.00;;
76896;SDS011;65856;52.178;21.176;2024-03-23T04:02:20;23.90;;;13.50;;
76896;SDS011;65856;52.178;21.176;2024-03-23T04:04:45;27.80;;;14.30;;
76896;SDS011;65856;52.178;21.176;2024-03-23T04:07:11;24.10;;;13.60;;
76896;SDS011;65856;52.178;21.176;2024-03-23T04:09:36;24.70;;;13.90;;
76896;SDS011;65856;52.178;21.176;2024-03-23T04:12:01;25.20;;;13.80;;
76896;SDS011;65856;52.178;21.176;2024-03-23T04:14:27;25.00;;;13.70;;
76896;SDS011;65856;52.178;21.176;2024-03-23T04:16:52;24.20;;;14.00;;
76896;SDS011;65856;52.178;21.176;2024-03-23T04:19:18;23.40;;;13.50;;
76896;SDS011;65856;52.178;21.176;2024-03-23T04:21:43;26.60;;;13.80;;
76896;SDS011;65856;52.178;21.176;2024-03-23T04:24:08;24.70;;;13.90;;
76896;SDS011;65856;52.178;21.176;2024-03-23T04:26:43;24.40;;;14.00;;
76896;SDS011;65856;52.178;21.176;2024-03-23T04:29:08;23.50;;;13.40;;
76896;SDS011;65856;52.178;21.176;2024-03-23T04:31:34;22.80;;;13.40;;
76896;SDS011;65856;52.178;21.176;2024-03-23T04:34:02;25.50;;;14.20;;
76896;SDS011;65856;52.178;21.176;2024-03-23T04:36:28;25.10;;;14.30;;
76896;SDS011;65856;52.178;21.176;2024-03-23T04:38:55;25.80;;;13.90;;
76896;SDS011;65856;52.178;21.176;2024-03-23T04:41:24;26.80;;;14.30;;
76896;SDS011;65856;52.178;21.176;2024-03-23T04:43:51;25.00;;;14.20;;
76896;SDS011;65856;52.178;21.176;2024-03-23T04:46:19;26.30;;;13.70;;
76896;SDS011;65856;52.178;21.176;2024-03-23T04:48:45;23.70;;;13.70;;
76896;SDS011;65856;52.178;21.176;2024-03-23T04:51:20;25.40;;;14.10;;
76896;SDS011;65856;52.178;21.176;2024-03-23T04:53:47;25.00;;;14.40;;
76896;SDS011;65856;52.178;21.176;2024-03-23T04:56:13;23.70;;;14.00;;
76896;SDS011;65856;52.178;21.176;2024-03-23T04:58:40;24.80;;;14.60;;
76896;SDS011;65856;52.178;21.176;2024-03-23T05:01:05;25.80;;;14.80;;
76896;SDS011;65856;52.178;21.176;2024-03-23T05:03:30;25.90;;;14.20;;
76896;SDS011;65856;52.178;21.176;2024-03-23T05:05:56;24.50;;;14.40;;
76896;SDS011;65856;52.178;21.176;2024-03-23T05:08:22;25.00;;;14.00;;
76896;SDS011;65856;52.178;21.176;2024-03-23T05:10:47;26.10;;;14.90;;
76896;SDS011;65856;52.178;21.176;2024-03-23T05:13:13;26.60;;;15.00;;
76896;SDS011;65856;52.178;21.176;2024-03-23T05:15:38;23.40;;;14.40;;
76896;SDS011;65856;52.178;21.176;2024-03-23T05:18:04;26.20;;;15.10;;
76896;SDS011;65856;52.178;21.176;2024-03-23T05:20:31;27.10;;;14.30;;
76896;SDS011;65856;52.178;21.176;2024-03-23T05:22:56;24.10;;;14.90;;
76896;SDS011;65856;52.178;21.176;2024-03-23T05:25:22;26.50;;;15.00;;
76896;SDS011;65856;52.178;21.176;2024-03-23T05:27:48;25.00;;;15.00;;
76896;SDS011;65856;52.178;21.176;2024-03-23T05:30:14;26.40;;;15.20;;
76896;SDS011;65856;52.178;21.176;2024-03-23T05:32:39;25.90;;;14.70;;
76896;SDS011;65856;52.178;21.176;2024-03-23T05:35:06;27.10;;;15.70;;
76896;SDS011;65856;52.178;21.176;2024-03-23T05:37:33;26.20;;;14.50;;
76896;SDS011;65856;52.178;21.176;2024-03-23T05:40:03;25.10;;;14.10;;
76896;SDS011;65856;52.178;21.176;2024-03-23T05:42:29;24.80;;;14.60;;
76896;SDS011;65856;52.178;21.176;2024-03-23T05:44:54;27.60;;;14.80;;
76896;SDS011;65856;52.178;21.176;2024-03-23T05:47:20;26.30;;;15.10;;
76896;SDS011;65856;52.178;21.176;2024-03-23T05:49:46;24.80;;;14.90;;
76896;SDS011;65856;52.178;21.176;2024-03-23T05:52:12;26.30;;;15.40;;
76896;SDS011;65856;52.178;21.176;2024-03-23T05:54:38;26.80;;;15.30;;
76896;SDS011;65856;52.178;21.176;2024-03-23T05:57:04;25.60;;;15.00;;
76896;SDS011;65856;52.178;21.176;2024-03-23T05:59:32;28.70;;;16.10;;
76896;SDS011;65856;52.178;21.176;2024-03-23T06:01:58;24.80;;;14.90;;
76896;SDS011;65856;52.178;21.176;2024-03-23T06:04:23;27.80;;;15.50;;
76896;SDS011;65856;52.178;21.176;2024-03-23T06:06:48;28.40;;;15.30;;
76896;SDS011;65856;52.178;21.176;2024-03-23T06:09:14;24.60;;;15.50;;
76896;SDS011;65856;52.178;21.176;2024-03-23T06:11:39;28.50;;;15.30;;
76896;SDS011;65856;52.178;21.176;2024-03-23T06:14:05;25.60;;;14.50;;
76896;SDS011;65856;52.178;21.176;2024-03-23T06:16:31;29.40;;;15.70;;
76896;SDS011;65856;52.178;21.176;2024-03-23T06:18:56;23.90;;;15.30;;
76896;SDS011;65856;52.178;21.176;2024-03-23T06:21:22;29.10;;;15.70;;
76896;SDS011;65856;52.178;21.176;2024-03-23T06:23:51;26.90;;;15.20;;
76896;SDS011;65856;52.178;21.176;2024-03-23T06:26:18;29.60;;;15.80;;
76896;SDS011;65856;52.178;21.176;2024-03-23T06:28:45;27.00;;;14.70;;
76896;SDS011;65856;52.178;21.176;2024-03-23T06:31:11;27.70;;;15.20;;
76896;SDS011;65856;52.178;21.176;2024-03-23T06:33:36;27.70;;;14.70;;
76896;SDS011;65856;52.178;21.176;2024-03-23T06:36:03;27.00;;;14.50;;
76896;SDS011;65856;52.178;21.176;2024-03-23T06:38:32;27.00;;;15.20;;
76896;SDS011;65856;52.178;21.176;2024-03-23T06:40:57;28.30;;;15.90;;
76896;SDS011;65856;52.178;21.176;2024-03-23T06:43:23;26.80;;;15.40;;
76896;SDS011;65856;52.178;21.176;2024-03-23T06:45:53;26.70;;;14.90;;
76896;SDS011;65856;52.178;21.176;2024-03-23T06:48:19;26.40;;;14.10;;
76896;SDS011;65856;52.178;21.176;2024-03-23T06:50:45;26.30;;;14.70;;
76896;SDS011;65856;52.178;21.176;2024-03-23T06:53:14;29.00;;;15.50;;
76896;SDS011;65856;52.178;21.176;2024-03-23T06:55:41;26.30;;;14.80;;
76896;SDS011;65856;52.178;21.176;2024-03-23T06:58:07;27.30;;;15.00;;
76896;SDS011;65856;52.178;21.176;2024-03-23T07:00:33;26.50;;;15.00;;
76896;SDS011;65856;52.178;21.176;2024-03-23T07:02:59;27.00;;;14.50;;
76896;SDS011;65856;52.178;21.176;2024-03-23T07:05:25;23.50;;;14.30;;
76896;SDS011;65856;52.178;21.176;2024-03-23T07:07:51;27.20;;;15.30;;
76896;SDS011;65856;52.178;21.176;2024-03-23T07:10:16;24.90;;;14.70;;
76896;SDS011;65856;52.178;21.176;2024-03-23T07:12:42;28.30;;;15.10;;
76896;SDS011;65856;52.178;21.176;2024-03-23T07:15:08;30.80;;;15.50;;
76896;SDS011;65856;52.178;21.176;2024-03-23T07:17:34;27.90;;;16.00;;
76896;SDS011;65856;52.178;21.176;2024-03-23T07:20:01;29.60;;;16.00;;
76896;SDS011;65856;52.178;21.176;2024-03-23T07:22:32;24.30;;;14.40;;
76896;SDS011;65856;52.178;21.176;2024-03-23T07:25:01;29.80;;;15.20;;
76896;SDS011;65856;52.178;21.176;2024-03-23T07:27:27;27.10;;;15.20;;
76896;SDS011;65856;52.178;21.176;2024-03-23T07:29:52;26.40;;;15.80;;
76896;SDS011;65856;52.178;21.176;2024-03-23T07:32:18;27.70;;;15.20;;
76896;SDS011;65856;52.178;21.176;2024-03-23T07:34:43;26.30;;;15.20;;
76896;SDS011;65856;52.178;21.176;2024-03-23T07:37:10;25.70;;;14.80;;
76896;SDS011;65856;52.178;21.176;2024-03-23T07:39:35;26.00;;;14.60;;
76896;SDS011;65856;52.178;21.176;2024-03-23T07:42:01;26.20;;;14.40;;
76896;SDS011;65856;52.178;21.176;2024-03-23T07:44:27;24.60;;;14.60;;
76896;SDS011;65856;52.178;21.176;2024-03-23T07:46:52;25.70;;;14.10;;
76896;SDS011;65856;52.178;21.176;2024-03-23T07:49:18;27.70;;;14.90;;
76896;SDS011;65856;52.178;21.176;2024-03-23T07:51:43;22.90;;;13.40;;
76896;SDS011;65856;52.178;21.176;2024-03-23T07:54:10;27.40;;;14.80;;
76896;SDS011;65856;52.178;21.176;2024-03-23T07:56:35;26.30;;;14.00;;
76896;SDS011;65856;52.178;21.176;2024-03-23T07:59:01;28.10;;;15.10;;
76896;SDS011;65856;52.178;21.176;2024-03-23T08:01:28;25.80;;;14.40;;
76896;SDS011;65856;52.178;21.176;2024-03-23T08:03:54;28.20;;;15.20;;
76896;SDS011;65856;52.178;21.176;2024-03-23T08:06:20;26.90;;;14.30;;
76896;SDS011;65856;52.178;21.176;2024-03-23T08:08:48;32.20;;;15.20;;
76896;SDS011;65856;52.178;21.176;2024-03-23T08:11:31;26.50;;;14.30;;
76896;SDS011;65856;52.178;21.176;2024-03-23T08:13:59;27.20;;;14.70;;
76896;SDS011;65856;52.178;21.176;2024-03-23T08:16:25;29.30;;;15.10;;
76896;SDS011;65856;52.178;21.176;2024-03-23T08:18:54;23.40;;;13.30;;
76896;SDS011;65856;52.178;21.176;2024-03-23T08:21:22;25.10;;;13.80;;
76896;SDS011;65856;52.178;21.176;2024-03-23T08:23:47;27.50;;;13.90;;
76896;SDS011;65856;52.178;21.176;2024-03-23T08:26:15;26.30;;;14.40;;
76896;SDS011;65856;52.178;21.176;2024-03-23T08:28:41;26.90;;;14.90;;
76896;SDS011;65856;52.178;21.176;2024-03-23T08:31:08;32.30;;;15.50;;
76896;SDS011;65856;52.178;21.176;2024-03-23T08:33:35;28.80;;;15.10;;
76896;SDS011;65856;52.178;21.176;2024-03-23T08:36:03;26.40;;;14.20;;
76896;SDS011;65856;52.178;21.176;2024-03-23T08:38:30;27.10;;;14.60;;
76896;SDS011;65856;52.178;21.176;2024-03-23T08:41:09;28.20;;;14.20;;
76896;SDS011;65856;52.178;21.176;2024-03-23T08:43:36;22.60;;;12.90;;
76896;SDS011;65856;52.178;21.176;2024-03-23T08:48:44;26.80;;;13.50;;
76896;SDS011;65856;52.178;21.176;2024-03-23T08:51:12;25.10;;;13.20;;
76896;SDS011;65856;52.178;21.176;2024-03-23T08:53:38;23.70;;;12.60;;
76896;SDS011;65856;52.178;21.176;2024-03-23T08:56:07;23.30;;;13.20;;
76896;SDS011;65856;52.178;21.176;2024-03-23T08:58:33;28.10;;;11.90;;
76896;SDS011;65856;52.178;21.176;2024-03-23T09:01:13;25.50;;;13.20;;
76896;SDS011;65856;52.178;21.176;2024-03-23T09:03:40;26.30;;;13.40;;
76896;SDS011;65856;52.178;21.176;2024-03-23T09:06:10;24.50;;;12.60;;
76896;SDS011;65856;52.178;21.176;2024-03-23T09:08:37;20.60;;;12.10;;
76896;SDS011;65856;52.178;21.176;2024-03-23T09:11:06;23.40;;;12.00;;
76896;SDS011;65856;52.178;21.176;2024-03-23T09:13:34;20.80;;;12.00;;
76896;SDS011;65856;52.178;21.176;2024-03-23T09:16:00;21.00;;;12.00;;
76896;SDS011;65856;52.178;21.176;2024-03-23T09:18:25;22.30;;;12.10;;
76896;SDS011;65856;52.178;21.176;2024-03-23T09:20:51;21.00;;;11.60;;
76896;SDS011;65856;52.178;21.176;2024-03-23T09:23:18;19.30;;;11.20;;
76896;SDS011;65856;52.178;21.176;2024-03-23T09:25:44;22.30;;;11.20;;
76896;SDS011;65856;52.178;21.176;2024-03-23T09:28:09;19.40;;;10.80;;
76896;SDS011;65856;52.178;21.176;2024-03-23T09:30:36;18.30;;;11.00;;
76896;SDS011;65856;52.178;21.176;2024-03-23T09:33:07;17.50;;;10.40;;
76896;SDS011;65856;52.178;21.176;2024-03-23T09:35:36;19.50;;;9.90;;
76896;SDS011;65856;52.178;21.176;2024-03-23T09:38:05;18.70;;;10.10;;
76896;SDS011;65856;52.178;21.176;2024-03-23T09:40:33;19.70;;;9.20;;
76896;SDS011;65856;52.178;21.176;2024-03-23T09:42:59;17.00;;;10.20;;
76896;SDS011;65856;52.178;21.176;2024-03-23T09:45:28;16.90;;;9.50;;
76896;SDS011;65856;52.178;21.176;2024-03-23T09:47:54;17.10;;;9.60;;
76896;SDS011;65856;52.178;21.176;2024-03-23T09:50:21;18.50;;;9.50;;
76896;SDS011;65856;52.178;21.176;2024-03-23T09:52:47;14.90;;;8.80;;
76896;SDS011;65856;52.178;21.176;2024-03-23T09:55:12;13.80;;;8.70;;
76896;SDS011;65856;52.178;21.176;2024-03-23T09:57:39;14.40;;;8.80;;
76896;SDS011;65856;52.178;21.176;2024-03-23T10:00:05;16.90;;;8.70;;
76896;SDS011;65856;52.178;21.176;2024-03-23T10:02:34;15.80;;;8.90;;
76896;SDS011;65856;52.178;21.176;2024-03-23T10:05:00;28.20;;;15.90;;
76896;SDS011;65856;52.178;21.176;2024-03-23T10:07:26;16.10;;;10.30;;
76896;SDS011;65856;52.178;21.176;2024-03-23T10:09:54;16.20;;;10.30;;
76896;SDS011;65856;52.178;21.176;2024-03-23T10:12:19;15.30;;;9.20;;
76896;SDS011;65856;52.178;21.176;2024-03-23T10:14:46;13.60;;;8.00;;
76896;SDS011;65856;52.178;21.176;2024-03-23T10:17:16;18.00;;;9.90;;
76896;SDS011;65856;52.178;21.176;2024-03-23T10:19:46;14.30;;;9.00;;
76896;SDS011;65856;52.178;21.176;2024-03-23T10:22:23;14.30;;;9.30;;
76896;SDS011;65856;52.178;21.176;2024-03-23T10:24:52;14.80;;;8.90;;
76896;SDS011;65856;52.178;21.176;2024-03-23T10:27:20;15.70;;;8.50;;
76896;SDS011;65856;52.178;21.176;2024-03-23T10:29:46;12.90;;;7.50;;
76896;SDS011;65856;52.178;21.176;2024-03-23T10:32:14;14.00;;;8.20;;
76896;SDS011;65856;52.178;21.176;2024-03-23T10:34:40;12.40;;;8.00;;
76896;SDS011;65856;52.178;21.176;2024-03-23T10:37:07;14.30;;;7.80;;
76896;SDS011;65856;52.178;21.176;2024-03-23T10:39:34;10.70;;;6.90;;
76896;SDS011;65856;52.178;21.176;2024-03-23T10:42:04;10.90;;;6.50;;
76896;SDS011;65856;52.178;21.176;2024-03-23T10:44:34;12.50;;;7.20;;
76896;SDS011;65856;52.178;21.176;2024-03-23T10:47:03;11.60;;;7.30;;
76896;SDS011;65856;52.178;21.176;2024-03-23T10:49:34;12.10;;;7.20;;
76896;SDS011;65856;52.178;21.176;2024-03-23T10:52:01;10.80;;;7.30;;
76896;SDS011;65856;52.178;21.176;2024-03-23T10:54:30;13.40;;;6.90;;
76896;SDS011;65856;52.178;21.176;2024-03-23T10:57:21;11.70;;;7.30;;
76896;SDS011;65856;52.178;21.176;2024-03-23T10:59:50;13.10;;;7.30;;
76896;SDS011;65856;52.178;21.176;2024-03-23T11:02:20;11.80;;;6.90;;
76896;SDS011;65856;52.178;21.176;2024-03-23T11:04:46;11.50;;;6.70;;
76896;SDS011;65856;52.178;21.176;2024-03-23T11:09:53;10.80;;;6.70;;
76896;SDS011;65856;52.178;21.176;2024-03-23T11:12:26;11.10;;;6.60;;
76896;SDS011;65856;52.178;21.176;2024-03-23T11:15:04;10.00;;;6.60;;
76896;SDS011;65856;52.178;21.176;2024-03-23T11:17:31;11.30;;;6.90;;
76896;SDS011;65856;52.178;21.176;2024-03-23T11:20:00;9.90;;;6.70;;
76896;SDS011;65856;52.178;21.176;2024-03-23T11:22:47;11.00;;;7.20;;
76896;SDS011;65856;52.178;21.176;2024-03-23T11:25:20;10.60;;;6.20;;
76896;SDS011;65856;52.178;21.176;2024-03-23T11:27:55;8.40;;;5.70;;
76896;SDS011;65856;52.178;21.176;2024-03-23T11:30:26;10.20;;;6.10;;
76896;SDS011;65856;52.178;21.176;2024-03-23T11:32:56;9.40;;;6.10;;
76896;SDS011;65856;52.178;21.176;2024-03-23T11:38:13;9.30;;;5.90;;
76896;SDS011;65856;52.178;21.176;2024-03-23T11:40:47;9.10;;;5.30;;
76896;SDS011;65856;52.178;21.176;2024-03-23T11:43:15;8.90;;;5.70;;
76896;SDS011;65856;52.178;21.176;2024-03-23T11:45:45;10.10;;;6.10;;
76896;SDS011;65856;52.178;21.176;2024-03-23T11:48:19;8.50;;;6.00;;
76896;SDS011;65856;52.178;21.176;2024-03-23T11:50:50;9.20;;;5.80;;
76896;SDS011;65856;52.178;21.176;2024-03-23T11:53:20;9.10;;;5.40;;
76896;SDS011;65856;52.178;21.176;2024-03-23T11:55:59;8.70;;;5.00;;
76896;SDS011;65856;52.178;21.176;2024-03-23T11:58:26;8.50;;;5.40;;
76896;SDS011;65856;52.178;21.176;2024-03-23T12:00:56;9.90;;;5.60;;
76896;SDS011;65856;52.178;21.176;2024-03-23T12:03:29;8.90;;;5.30;;
76896;SDS011;65856;52.178;21.176;2024-03-23T12:05:59;8.90;;;4.80;;
76896;SDS011;65856;52.178;21.176;2024-03-23T12:08:34;8.00;;;4.70;;
76896;SDS011;65856;52.178;21.176;2024-03-23T12:11:11;8.00;;;5.10;;
76896;SDS011;65856;52.178;21.176;2024-03-23T12:13:39;7.00;;;5.00;;
76896;SDS011;65856;52.178;21.176;2024-03-23T12:16:11;6.50;;;4.70;;
76896;SDS011;65856;52.178;21.176;2024-03-23T12:18:39;7.40;;;4.90;;
76896;SDS011;65856;52.178;21.176;2024-03-23T12:21:05;7.90;;;5.30;;
76896;SDS011;65856;52.178;21.176;2024-03-23T12:23:31;7.60;;;5.00;;
76896;SDS011;65856;52.178;21.176;2024-03-23T12:25:57;7.40;;;5.10;;
76896;SDS011;65856;52.178;21.176;2024-03-23T12:28:23;8.40;;;5.40;;
76896;SDS011;65856;52.178;21.176;2024-03-23T12:30:49;7.60;;;5.20;;
76896;SDS011;65856;52.178;21.176;2024-03-23T12:33:14;8.20;;;5.10;;
76896;SDS011;65856;52.178;21.176;2024-03-23T12:35:40;9.20;;;5.40;;
76896;SDS011;65856;52.178;21.176;2024-03-23T12:38:05;9.30;;;5.30;;
76896;SDS011;65856;52.178;21.176;2024-03-23T12:40:31;8.50;;;5.40;;
76896;SDS011;65856;52.178;21.176;2024-03-23T12:42:56;7.70;;;5.60;;
76896;SDS011;65856;52.178;21.176;2024-03-23T12:45:22;8.80;;;5.60;;
76896;SDS011;65856;52.178;21.176;2024-03-23T12:47:48;11.50;;;5.90;;
76896;SDS011;65856;52.178;21.176;2024-03-23T12:50:13;8.10;;;5.50;;
76896;SDS011;65856;52.178;21.176;2024-03-23T12:52:39;10.00;;;5.60;;
76896;SDS011;65856;52.178;21.176;2024-03-23T12:55:04;8.20;;;5.20;;
76896;SDS011;65856;52.178;21.176;2024-03-23T12:57:31;8.00;;;5.40;;
76896;SDS011;65856;52.178;21.176;2024-03-23T12:59:58;8.30;;;5.50;;
76896;SDS011;65856;52.178;21.176;2024-03-23T13:02:24;9.00;;;5.50;;
76896;SDS011;65856;52.178;21.176;2024-03-23T13:04:50;7.40;;;5.40;;
76896;SDS011;65856;52.178;21.176;2024-03-23T13:07:20;11.10;;;5.60;;
76896;SDS011;65856;52.178;21.176;2024-03-23T13:09:49;10.10;;;5.50;;
76896;SDS011;65856;52.178;21.176;2024-03-23T13:12:15;9.00;;;5.50;;
76896;SDS011;65856;52.178;21.176;2024-03-23T13:14:40;8.50;;;5.40;;
76896;SDS011;65856;52.178;21.176;2024-03-23T13:17:07;11.50;;;5.60;;
76896;SDS011;65856;52.178;21.176;2024-03-23T13:19:34;7.90;;;5.40;;
76896;SDS011;65856;52.178;21.176;2024-03-23T13:22:00;10.30;;;5.00;;
76896;SDS011;65856;52.178;21.176;2024-03-23T13:24:27;7.50;;;5.10;;
76896;SDS011;65856;52.178;21.176;2024-03-23T13:26:54;6.00;;;4.90;;
76896;SDS011;65856;52.178;21.176;2024-03-23T13:29:20;7.40;;;4.90;;
76896;SDS011;65856;52.178;21.176;2024-03-23T13:31:46;8.30;;;4.90;;
76896;SDS011;65856;52.178;21.176;2024-03-23T13:34:12;10.50;;;4.80;;
76896;SDS011;65856;52.178;21.176;2024-03-23T13:36:43;8.90;;;5.10;;
76896;SDS011;65856;52.178;21.176;2024-03-23T13:39:09;7.20;;;4.80;;
76896;SDS011;65856;52.178;21.176;2024-03-23T13:41:42;9.10;;;4.70;;
76896;SDS011;65856;52.178;21.176;2024-03-23T13:44:10;7.30;;;4.40;;
76896;SDS011;65856;52.178;21.176;2024-03-23T13:46:37;10.30;;;5.20;;
76896;SDS011;65856;52.178;21.176;2024-03-23T13:49:03;10.70;;;5.30;;
76896;SDS011;65856;52.178;21.176;2024-03-23T13:51:30;8.50;;;5.10;;
76896;SDS011;65856;52.178;21.176;2024-03-23T13:53:56;84.20;;;41.00;;
76896;SDS011;65856;52.178;21.176;2024-03-23T13:56:24;32.30;;;17.30;;
76896;SDS011;65856;52.178;21.176;2024-03-23T13:58:50;13.30;;;7.70;;
76896;SDS011;65856;52.178;21.176;2024-03-23T14:01:16;9.20;;;4.90;;
76896;SDS011;65856;52.178;21.176;2024-03-23T14:03:42;10.50;;;6.60;;
76896;SDS011;65856;52.178;21.176;2024-03-23T14:06:08;47.70;;;25.80;;
76896;SDS011;65856;52.178;21.176;2024-03-23T14:08:35;112.90;;;50.80;;
76896;SDS011;65856;52.178;21.176;2024-03-23T14:11:04;111.90;;;47.40;;
76896;SDS011;65856;52.178;21.176;2024-03-23T14:13:30;106.20;;;43.60;;
76896;SDS011;65856;52.178;21.176;2024-03-23T14:15:55;25.70;;;12.50;;
76896;SDS011;65856;52.178;21.176;2024-03-23T14:18:21;19.00;;;9.70;;
76896;SDS011;65856;52.178;21.176;2024-03-23T14:20:51;18.70;;;8.70;;
76896;SDS011;65856;52.178;21.176;2024-03-23T14:23:18;75.90;;;39.00;;
76896;SDS011;65856;52.178;21.176;2024-03-23T14:25:44;30.30;;;16.60;;
76896;SDS011;65856;52.178;21.176;2024-03-23T14:28:10;9.50;;;5.40;;
76896;SDS011;65856;52.178;21.176;2024-03-23T14:30:40;10.70;;;5.50;;
76896;SDS011;65856;52.178;21.176;2024-03-23T14:33:07;17.70;;;8.10;;
76896;SDS011;65856;52.178;21.176;2024-03-23T14:35:32;15.40;;;7.80;;
76896;SDS011;65856;52.178;21.176;2024-03-23T14:37:58;15.90;;;7.60;;
76896;SDS011;65856;52.178;21.176;2024-03-23T14:40:24;15.40;;;7.10;;
76896;SDS011;65856;52.178;21.176;2024-03-23T14:42:53;14.30;;;7.00;;
76896;SDS011;65856;52.178;21.176;2024-03-23T14:45:20;11.80;;;6.90;;
76896;SDS011;65856;52.178;21.176;2024-03-23T14:47:46;11.70;;;6.50;;
76896;SDS011;65856;52.178;21.176;2024-03-23T14:50:12;10.10;;;5.60;;
76896;SDS011;65856;52.178;21.176;2024-03-23T14:52:41;14.10;;;6.60;;
76896;SDS011;65856;52.178;21.176;2024-03-23T14:55:09;13.30;;;6.50;;
76896;SDS011;65856;52.178;21.176;2024-03-23T14:57:34;11.10;;;6.40;;
76896;SDS011;65856;52.178;21.176;2024-03-23T15:00:00;9.90;;;5.90;;
76896;SDS011;65856;52.178;21.176;2024-03-23T15:02:26;11.60;;;6.70;;
76896;SDS011;65856;52.178;21.176;2024-03-23T15:04:53;11.10;;;6.50;;
76896;SDS011;65856;52.178;21.176;2024-03-23T15:07:19;11.10;;;6.90;;
76896;SDS011;65856;52.178;21.176;2024-03-23T15:09:44;12.40;;;7.00;;
76896;SDS011;65856;52.178;21.176;2024-03-23T15:12:10;9.40;;;6.30;;
76896;SDS011;65856;52.178;21.176;2024-03-23T15:14:35;10.80;;;6.70;;